Tollesboro, Kentucky
Current Conditions -  °F | °C
As of 9:55 PM on Friday 21 Nov 2014 (Local Time) from KFGX Reporting Station
Clear Clear  
Wind Chill: 16°   Ceiling: Unl
Heat Index: 24°   Visibility: 10mi
Dew Point: 11°   Wind: 7mph
Humidity: 58%   Direction: 110°ESE
Pressure: 30.44"   Gusts: NA
Location:  38.56°N, 83.58°W
Report Text: KFGX 220255Z AUTO 11006KT 10SM CLR M04/M12 A3044 RMK AO2 6//// T10451116
Loading
Personal Weather Stations






























Interactive Weather Map New forecast layout! Learn more

10-Day Weather Forecast

Advertisements
Track Severe Weather on mobile